Weather at Hang Nadim International Airport

Public forecast

Using degrees Celsius for public forecast. Weather courtesy of forecast.io.

Current aviation weather report (METAR) for Hang Nadim International Airport

Retrieved 2022/05/21 09:30 UTC (24 minutes ago):

WIDD 210930Z 20008KT 9999 TS FEW013CB SCT014 31/25 Q1008 NOSIG RMK CB TO N AND E

Aviation forecast (TAF) for Hang Nadim International Airport

Retrieved 2022/05/21 06:00 UTC (4 hours ago):

TAF WIDD 210500Z 2106/2206 18007KT 9999 SCT014